createdAt,value
2023-02-11T00:01:26.009Z,102474.41
2023-02-11T00:03:56.407Z,102473.63
2023-02-11T00:06:25.850Z,102465.66
2023-02-11T00:08:54.331Z,102469.53
2023-02-11T00:11:25.519Z,102473.53
2023-02-11T00:13:54.084Z,102475.59
2023-02-11T00:16:22.594Z,102483.91
2023-02-11T00:18:53.035Z,102493.56
2023-02-11T00:21:25.417Z,102509.25
2023-02-11T00:23:54.959Z,102499.50
2023-02-11T00:26:25.291Z,102496.03
2023-02-11T00:28:54.739Z,102488.47
2023-02-11T00:31:24.965Z,102475.59
2023-02-11T00:33:53.863Z,102463.03
2023-02-11T00:36:25.549Z,102458.75
2023-02-11T00:38:55.467Z,102462.63
2023-02-11T00:41:24.789Z,102459.44
2023-02-11T00:43:53.817Z,102459.16
2023-02-11T00:46:22.690Z,102463.66
2023-02-11T00:48:55.054Z,102455.06
2023-02-11T00:51:25.523Z,102482.31
2023-02-11T00:53:54.387Z,102478.47
2023-02-11T00:56:22.864Z,102470.88
2023-02-11T00:58:51.588Z,102467.94
2023-02-11T01:01:20.195Z,102469.22
2023-02-11T01:03:49.070Z,102465.91
2023-02-11T01:06:17.735Z,102457.28
2023-02-11T01:08:47.542Z,102439.28
2023-02-11T01:11:19.605Z,102441.22
2023-02-11T01:13:49.073Z,102421.44
2023-02-11T01:16:18.619Z,102422.44
2023-02-11T01:18:47.578Z,102412.44
2023-02-11T01:21:16.201Z,102401.50
2023-02-11T01:23:44.665Z,102393.91
2023-02-11T01:26:14.608Z,102390.84
2023-02-11T01:28:43.495Z,102392.13
2023-02-11T01:31:12.109Z,102386.97
2023-02-11T01:33:40.676Z,102397.25
2023-02-11T01:36:09.839Z,102387.22
2023-02-11T01:38:38.460Z,102389.78
2023-02-11T01:41:08.821Z,102385.16
2023-02-11T01:43:40.937Z,102373.59
2023-02-11T01:46:29.414Z,102374.50
2023-02-11T01:49:01.452Z,102379.00
2023-02-11T01:51:34.292Z,102372.06
2023-02-11T01:54:22.783Z,102376.06
2023-02-11T01:57:13.792Z,102379.00
2023-02-11T01:59:49.488Z,102379.00
2023-02-11T02:02:24.988Z,102366.34
2023-02-11T02:04:58.957Z,102364.84
2023-02-11T02:07:33.988Z,102368.25
2023-02-11T02:10:08.661Z,102359.66
2023-02-11T02:12:37.215Z,102350.38
2023-02-11T02:15:26.577Z,102360.28
2023-02-11T02:18:00.259Z,102361.16
2023-02-11T02:21:07.027Z,102357.44
2023-02-11T02:24:05.182Z,102360.50
2023-02-11T02:26:59.002Z,102358.81
2023-02-11T02:29:56.512Z,102350.16
2023-02-11T02:32:36.436Z,102341.91
2023-02-11T02:35:17.011Z,102340.75
2023-02-11T02:37:51.821Z,102333.00
2023-02-11T02:40:24.908Z,102340.19
2023-02-11T02:42:54.160Z,102330.91
2023-02-11T02:45:22.739Z,102333.50
2023-02-11T02:47:52.547Z,102322.16
2023-02-11T02:50:27.705Z,102330.63
2023-02-11T02:53:07.516Z,102318.53
2023-02-11T02:55:50.338Z,102321.38
2023-02-11T02:58:36.237Z,102313.38
2023-02-11T03:01:14.416Z,102307.13
2023-02-11T03:03:50.918Z,102306.91
2023-02-11T03:06:29.831Z,102308.69
2023-02-11T03:09:03.333Z,102312.28
2023-02-11T03:11:31.923Z,102302.97
2023-02-11T03:14:03.317Z,102298.03
2023-02-11T03:16:36.152Z,102297.16
2023-02-11T03:19:11.776Z,102301.13
2023-02-11T03:21:42.902Z,102296.28
2023-02-11T03:24:15.595Z,102293.19
2023-02-11T03:26:48.110Z,102300.38
2023-02-11T03:29:19.754Z,102298.03
2023-02-11T03:31:57.241Z,102295.69
2023-02-11T03:34:32.021Z,102288.19
2023-02-11T03:37:06.781Z,102292.75
2023-02-11T03:39:40.695Z,102293.13
2023-02-11T03:42:12.148Z,102299.41
2023-02-11T03:44:46.191Z,102291.56
2023-02-11T03:47:18.140Z,102297.16
2023-02-11T03:49:50.689Z,102297.16
2023-02-11T03:52:21.155Z,102291.81
2023-02-11T03:54:54.779Z,102295.84
2023-02-11T03:57:23.215Z,102288.75
2023-02-11T03:59:54.090Z,102291.06
2023-02-11T04:02:25.031Z,102305.16
2023-02-11T04:04:54.948Z,102293.72
2023-02-11T04:07:23.955Z,102293.06
2023-02-11T04:09:52.763Z,102295.63
2023-02-11T04:12:21.447Z,102296.22
2023-02-11T04:14:49.880Z,102297.63
2023-02-11T04:17:18.413Z,102293.19
2023-02-11T04:19:46.853Z,102295.84
2023-02-11T04:22:16.654Z,102292.59
2023-02-11T04:24:45.105Z,102296.50
2023-02-11T04:27:13.536Z,102294.53
2023-02-11T04:29:41.968Z,102287.81
2023-02-11T04:32:10.581Z,102293.19
2023-02-11T04:34:39.252Z,102293.63
2023-02-11T04:37:08.453Z,102283.34
2023-02-11T04:39:38.317Z,102286.25
2023-02-11T04:42:06.959Z,102276.28
2023-02-11T04:44:35.412Z,102274.59
2023-02-11T04:47:03.844Z,102263.38
2023-02-11T04:49:32.366Z,102264.97
2023-02-11T04:52:00.796Z,102266.53
2023-02-11T04:54:29.265Z,102262.50
2023-02-11T04:56:59.049Z,102266.53
2023-02-11T04:59:27.517Z,102260.72
2023-02-11T05:01:55.985Z,102247.59
2023-02-11T05:04:24.676Z,102254.78
2023-02-11T05:06:53.232Z,102257.09
2023-02-11T05:09:21.677Z,102245.56
2023-02-11T05:11:50.977Z,102235.91
2023-02-11T05:14:20.897Z,102230.88
2023-02-11T05:16:49.390Z,102235.78
2023-02-11T05:19:17.842Z,102224.94
2023-02-11T05:22:01.412Z,102220.31
2023-02-11T05:24:30.542Z,102222.34
2023-02-11T05:26:59.090Z,102201.88
2023-02-11T05:29:29.244Z,102210.00
2023-02-11T05:31:57.650Z,102203.78
2023-02-11T05:34:26.172Z,102196.84
2023-02-11T05:36:54.692Z,102199.16
2023-02-11T05:39:23.513Z,102206.47
2023-02-11T05:41:51.936Z,102192.75
2023-02-11T05:44:20.401Z,102200.41
2023-02-11T05:46:50.322Z,102187.72
2023-02-11T05:49:19.253Z,102194.38
2023-02-11T05:51:47.749Z,102183.81
2023-02-11T05:54:16.895Z,102191.88
2023-02-11T05:56:45.421Z,102201.19
2023-02-11T05:59:15.280Z,102194.56
2023-02-11T06:01:44.047Z,102197.72
2023-02-11T06:04:13.840Z,102191.69
2023-02-11T06:06:42.306Z,102193.47
2023-02-11T06:09:11.807Z,102208.22
2023-02-11T06:11:40.319Z,102209.38
2023-02-11T06:14:09.901Z,102206.50
2023-02-11T06:16:38.323Z,102214.13
2023-02-11T06:19:07.040Z,102210.53
2023-02-11T06:21:43.923Z,102215.91
2023-02-11T06:24:13.306Z,102206.47
2023-02-11T06:26:41.812Z,102199.22
2023-02-11T06:29:10.322Z,102218.38
2023-02-11T06:31:39.764Z,102202.13
2023-02-11T06:34:08.463Z,102199.78
2023-02-11T06:36:40.336Z,102190.91
2023-02-11T06:39:09.094Z,102189.66
2023-02-11T06:41:37.801Z,102186.09
2023-02-11T06:44:06.602Z,102190.91
2023-02-11T06:46:35.153Z,102182.28
2023-02-11T06:49:03.722Z,102175.44
2023-02-11T06:51:32.226Z,102182.38
2023-02-11T06:54:02.183Z,102178.56
2023-02-11T06:56:30.607Z,102181.81
2023-02-11T06:58:59.072Z,102195.94
2023-02-11T07:01:28.828Z,102195.06
2023-02-11T07:03:57.365Z,102192.63
2023-02-11T07:06:28.306Z,102195.03
2023-02-11T07:08:57.534Z,102190.38
2023-02-11T07:11:29.472Z,102180.59
2023-02-11T07:14:03.066Z,102177.00
2023-02-11T07:16:32.141Z,102191.34
2023-02-11T07:19:00.623Z,102179.81
2023-02-11T07:21:29.329Z,102174.66
2023-02-11T07:23:57.736Z,102167.34
2023-02-11T07:26:27.608Z,102161.75
2023-02-11T07:28:56.105Z,102160.75
2023-02-11T07:31:26.528Z,102159.50
2023-02-11T07:33:56.967Z,102163.22
2023-02-11T07:36:25.528Z,102153.78
2023-02-11T07:38:53.989Z,102154.25
2023-02-11T07:41:24.396Z,102159.63
2023-02-11T07:43:54.368Z,102162.63
2023-02-11T07:46:24.795Z,102155.56
2023-02-11T07:48:53.768Z,102160.03
2023-02-11T07:51:24.229Z,102163.66
2023-02-11T07:53:53.417Z,102158.69
2023-02-11T07:56:22.759Z,102163.72
2023-02-11T07:58:52.419Z,102156.00
2023-02-11T08:01:25.934Z,102160.94
2023-02-11T08:03:55.126Z,102161.38
2023-02-11T08:06:25.590Z,102157.56
2023-02-11T08:08:54.213Z,102166.72
2023-02-11T08:11:24.800Z,102179.06
2023-02-11T08:13:54.236Z,102183.56
2023-02-11T08:16:25.857Z,102179.56
2023-02-11T08:18:57.351Z,102192.78
2023-02-11T08:21:26.544Z,102204.44
2023-02-11T08:23:55.366Z,102197.44
2023-02-11T08:26:26.892Z,102211.13
2023-02-11T08:28:57.472Z,102215.16
2023-02-11T08:31:29.322Z,102203.84
2023-02-11T08:33:58.926Z,102205.94
2023-02-11T08:36:29.252Z,102206.81
2023-02-11T08:39:15.954Z,102209.34
2023-02-11T08:41:48.758Z,102220.78
2023-02-11T08:44:17.451Z,102215.16
2023-02-11T08:46:47.958Z,102227.28
2023-02-11T08:49:16.865Z,102210.69
2023-02-11T08:51:45.892Z,102206.53
2023-02-11T08:54:14.476Z,102193.91
2023-02-11T08:56:43.708Z,102186.16
2023-02-11T08:59:14.673Z,102185.38
2023-02-11T09:01:44.285Z,102177.63
2023-02-11T09:04:15.092Z,102182.78
2023-02-11T09:06:44.226Z,102181.44
2023-02-11T09:09:14.544Z,102189.19
2023-02-11T09:11:44.734Z,102178.84
2023-02-11T09:14:18.728Z,102181.81
2023-02-11T09:16:47.445Z,102193.56
2023-02-11T09:19:17.420Z,102208.84
2023-02-11T09:21:45.877Z,102208.59
2023-02-11T09:24:14.386Z,102181.66
2023-02-11T09:26:44.262Z,102201.09
2023-02-11T09:29:13.108Z,102216.34
2023-02-11T09:31:41.870Z,102212.41
2023-02-11T09:34:12.436Z,102202.00
2023-02-11T09:36:42.423Z,102218.25
2023-02-11T09:39:14.341Z,102225.66
2023-02-11T09:42:35.870Z,102238.09
2023-02-11T09:45:06.220Z,102232.38
2023-02-11T09:47:36.737Z,102231.31
2023-02-11T09:50:08.178Z,102233.44
2023-02-11T09:52:45.478Z,102235.91
2023-02-11T09:55:19.771Z,102243.47
2023-02-11T09:57:48.474Z,102241.56
2023-02-11T10:00:22.364Z,102245.34
2023-02-11T10:03:17.110Z,102253.84
2023-02-11T10:05:59.037Z,102248.97
2023-02-11T10:08:42.769Z,102237.06
2023-02-11T10:11:31.363Z,102240.66
2023-02-11T10:14:17.370Z,102253.25
2023-02-11T10:16:58.865Z,102246.19
2023-02-11T10:19:38.047Z,102246.63
2023-02-11T10:22:13.423Z,102237.25
2023-02-11T10:24:50.032Z,102246.63
2023-02-11T10:27:21.939Z,102250.88
2023-02-11T10:29:54.502Z,102249.19
2023-02-11T10:32:32.382Z,102254.75
2023-02-11T10:35:04.900Z,102264.69
2023-02-11T10:37:33.378Z,102257.22
2023-02-11T10:40:03.249Z,102244.81
2023-02-11T10:42:32.120Z,102239.03
2023-02-11T10:45:04.108Z,102251.13
2023-02-11T10:47:38.153Z,102226.41
2023-02-11T10:50:21.033Z,102213.81
2023-02-11T10:52:49.702Z,102225.03
2023-02-11T10:55:22.037Z,102223.50
2023-02-11T10:57:59.629Z,102234.06
2023-02-11T11:00:36.745Z,102230.13
2023-02-11T11:03:08.443Z,102223.94
2023-02-11T11:05:46.606Z,102210.81
2023-02-11T11:08:15.500Z,102210.22
2023-02-11T11:10:47.633Z,102217.88
2023-02-11T11:13:32.266Z,102213.81
2023-02-11T11:16:23.409Z,102203.06
2023-02-11T11:18:54.766Z,102210.22
2023-02-11T11:21:25.424Z,102206.88
2023-02-11T11:23:59.739Z,102195.84
2023-02-11T11:26:39.996Z,102199.13
2023-02-11T11:29:12.793Z,102189.19
2023-02-11T11:31:50.356Z,102194.94
2023-02-11T11:34:28.511Z,102215.81
2023-02-11T11:36:58.384Z,102222.38
2023-02-11T11:39:29.220Z,102211.75
2023-02-11T11:42:01.283Z,102201.41
2023-02-11T11:44:32.499Z,102210.06
2023-02-11T11:47:26.553Z,102200.91
2023-02-11T11:50:27.430Z,102206.69
2023-02-11T11:53:01.616Z,102207.78
2023-02-11T11:55:35.966Z,102207.94
2023-02-11T11:58:05.802Z,102196.88
2023-02-11T12:00:38.982Z,102198.88
2023-02-11T12:03:39.792Z,102200.88
2023-02-11T12:06:27.676Z,102208.06
2023-02-11T12:09:07.917Z,102203.38
2023-02-11T12:11:46.297Z,102181.31
2023-02-11T12:14:25.250Z,102194.03
2023-02-11T12:17:04.384Z,102200.41
2023-02-11T12:19:54.975Z,102194.25
2023-02-11T12:22:37.106Z,102191.69
2023-02-11T12:25:20.822Z,102190.06
2023-02-11T12:27:57.432Z,102194.25
2023-02-11T12:30:42.881Z,102191.06
2023-02-11T12:33:23.888Z,102193.38
2023-02-11T12:36:00.012Z,102194.09
2023-02-11T12:38:57.245Z,102207.59
2023-02-11T12:42:11.442Z,102190.28
2023-02-11T12:44:54.122Z,102199.53
2023-02-11T12:47:33.583Z,102215.56
2023-02-11T12:50:15.926Z,102197.47
2023-02-11T12:53:02.079Z,102198.34
2023-02-11T12:55:37.131Z,102206.19
2023-02-11T12:58:09.710Z,102198.44
2023-02-11T13:00:46.688Z,102201.63
2023-02-11T13:03:23.752Z,102216.34
2023-02-11T13:05:55.250Z,102212.56
2023-02-11T13:08:31.853Z,102213.38
2023-02-11T13:11:03.523Z,102215.47
2023-02-11T13:13:36.901Z,102218.66
2023-02-11T13:16:07.952Z,102228.69
2023-02-11T13:18:50.060Z,102210.78
2023-02-11T13:21:30.415Z,102221.34
2023-02-11T13:24:07.504Z,102215.75
2023-02-11T13:26:43.845Z,102225.31
2023-02-11T13:29:23.753Z,102222.13
2023-02-11T13:31:56.573Z,102234.38
2023-02-11T13:34:28.601Z,102234.06
2023-02-11T13:36:58.727Z,102251.00
2023-02-11T13:39:27.331Z,102243.44
2023-02-11T13:42:04.574Z,102245.44
2023-02-11T13:44:36.070Z,102242.56
2023-02-11T13:47:06.621Z,102261.13
2023-02-11T13:49:40.742Z,102248.13
2023-02-11T13:52:23.275Z,102252.38
2023-02-11T13:54:54.065Z,102255.19
2023-02-11T13:57:38.630Z,102255.66
2023-02-11T14:00:50.301Z,102258.06
2023-02-11T14:03:51.765Z,102253.59
2023-02-11T14:06:44.544Z,102251.91
2023-02-11T14:09:37.268Z,102251.91
2023-02-11T14:12:33.199Z,102256.88
2023-02-11T14:15:18.087Z,102247.72
2023-02-11T14:17:46.635Z,102250.59
2023-02-11T14:20:38.566Z,102253.00
2023-02-11T14:23:08.857Z,102259.75
2023-02-11T14:25:40.022Z,102260.25
2023-02-11T14:28:16.991Z,102254.56
2023-02-11T14:30:58.166Z,102265.13
2023-02-11T14:33:47.254Z,102261.56
2023-02-11T14:36:53.537Z,102266.31
2023-02-11T14:39:34.352Z,102252.59
2023-02-11T14:42:05.140Z,102258.97
2023-02-11T14:44:35.026Z,102250.19
2023-02-11T14:47:04.207Z,102254.56
2023-02-11T14:49:37.222Z,102265.94
2023-02-11T14:52:24.059Z,102263.53
2023-02-11T14:55:02.848Z,102270.19
2023-02-11T14:57:31.331Z,102279.69
2023-02-11T15:00:02.565Z,102277.50
2023-02-11T15:02:35.599Z,102281.06
2023-02-11T15:05:22.319Z,102282.16
2023-02-11T15:07:52.902Z,102282.84
2023-02-11T15:10:29.426Z,102293.19
2023-02-11T15:12:59.522Z,102297.38
2023-02-11T15:15:28.462Z,102291.41
2023-02-11T15:18:00.660Z,102297.69
2023-02-11T15:20:32.624Z,102312.13
2023-02-11T15:23:03.856Z,102306.75
2023-02-11T15:25:34.326Z,102318.09
2023-02-11T15:28:03.302Z,102318.38
2023-02-11T15:30:34.309Z,102312.34
2023-02-11T15:33:05.455Z,102320.91
2023-02-11T15:35:36.705Z,102323.56
2023-02-11T15:38:06.209Z,102328.84
2023-02-11T15:40:37.693Z,102330.34
2023-02-11T15:43:07.898Z,102338.41
2023-02-11T15:45:40.205Z,102334.44
2023-02-11T15:48:12.950Z,102338.13
2023-02-11T15:50:44.063Z,102340.59
2023-02-11T15:53:25.752Z,102328.84
2023-02-11T15:56:04.107Z,102327.47
2023-02-11T15:58:37.790Z,102323.06
2023-02-11T16:01:06.783Z,102325.47
2023-02-11T16:03:35.728Z,102329.44
2023-02-11T16:06:20.958Z,102338.78
2023-02-11T16:09:01.215Z,102340.50
2023-02-11T16:11:33.258Z,102338.00
2023-02-11T16:14:05.829Z,102339.03
2023-02-11T16:16:36.219Z,102343.00
2023-02-11T16:19:06.611Z,102354.22
2023-02-11T16:21:39.224Z,102356.72
2023-02-11T16:24:16.874Z,102345.47
2023-02-11T16:26:50.037Z,102340.59
2023-02-11T16:29:22.071Z,102338.22
2023-02-11T16:31:51.009Z,102343.41
2023-02-11T16:34:21.843Z,102355.75
2023-02-11T16:36:51.612Z,102352.72
2023-02-11T16:39:22.550Z,102358.94
2023-02-11T16:41:53.356Z,102369.28
2023-02-11T16:44:21.813Z,102359.50
2023-02-11T16:46:50.341Z,102365.78
2023-02-11T16:49:22.324Z,102360.31
2023-02-11T16:51:52.816Z,102372.69
2023-02-11T16:54:21.871Z,102376.94
2023-02-11T16:56:50.522Z,102373.56
2023-02-11T16:59:20.783Z,102384.81
2023-02-11T17:01:50.741Z,102381.03
2023-02-11T17:04:24.582Z,102396.75
2023-02-11T17:06:53.154Z,102396.22
2023-02-11T17:09:24.084Z,102398.13
2023-02-11T17:11:52.834Z,102402.53
2023-02-11T17:14:22.646Z,102406.09
2023-02-11T17:16:51.186Z,102403.03
2023-02-11T17:19:21.796Z,102424.63
2023-02-11T17:21:51.947Z,102418.25
2023-02-11T17:24:21.335Z,102427.81
2023-02-11T17:26:51.148Z,102429.41
2023-02-11T17:29:22.907Z,102415.88
2023-02-11T17:31:52.403Z,102416.28
2023-02-11T17:34:21.383Z,102428.25
2023-02-11T17:36:50.208Z,102436.78
2023-02-11T17:39:19.269Z,102444.66
2023-02-11T17:41:47.830Z,102441.97
2023-02-11T17:44:16.711Z,102452.13
2023-02-11T17:46:46.916Z,102452.41
2023-02-11T17:49:15.787Z,102460.31
2023-02-11T17:51:44.589Z,102439.31
2023-02-11T17:54:19.079Z,102439.19
2023-02-11T17:56:50.596Z,102455.13
2023-02-11T17:59:19.315Z,102465.09
2023-02-11T18:01:49.676Z,102465.31
2023-02-11T18:04:21.012Z,102466.19
2023-02-11T18:06:50.283Z,102470.38
2023-02-11T18:09:18.796Z,102473.88
2023-02-11T18:11:48.479Z,102481.44
2023-02-11T18:14:17.140Z,102487.59
2023-02-11T18:16:46.455Z,102489.19
2023-02-11T18:19:17.273Z,102484.81
2023-02-11T18:21:48.711Z,102490.47
2023-02-11T18:24:17.403Z,102495.75
2023-02-11T18:26:45.792Z,102495.06
2023-02-11T18:29:14.237Z,102510.44
2023-02-11T18:31:42.775Z,102511.00
2023-02-11T18:34:12.766Z,102509.09
2023-02-11T18:36:42.799Z,102521.38
2023-02-11T18:39:11.425Z,102516.97
2023-02-11T18:41:42.236Z,102516.75
2023-02-11T18:44:11.996Z,102535.56
2023-02-11T18:46:40.525Z,102534.00
2023-02-11T18:49:09.874Z,102542.56
2023-02-11T18:51:38.283Z,102539.97
2023-02-11T18:54:08.278Z,102550.19
2023-02-11T18:56:36.743Z,102549.03
2023-02-11T18:59:05.462Z,102551.97
2023-02-11T19:01:34.775Z,102542.94
2023-02-11T19:04:05.876Z,102552.16
2023-02-11T19:06:36.382Z,102561.84
2023-02-11T19:09:07.528Z,102558.63
2023-02-11T19:11:50.791Z,102556.75
2023-02-11T19:14:22.791Z,102567.28
2023-02-11T19:16:53.041Z,102568.78
2023-02-11T19:19:23.168Z,102565.09
2023-02-11T19:21:51.944Z,102563.91
2023-02-11T19:24:20.864Z,102567.09
2023-02-11T19:26:52.746Z,102581.72
2023-02-11T19:29:21.219Z,102588.91
2023-02-11T19:31:49.944Z,102598.34
2023-02-11T19:34:20.507Z,102593.41
2023-02-11T19:36:49.064Z,102592.22
2023-02-11T19:39:18.534Z,102580.66
2023-02-11T19:41:47.106Z,102594.94
2023-02-11T19:44:16.898Z,102593.81
2023-02-11T19:46:48.389Z,102588.41
2023-02-11T19:49:22.949Z,102588.66
2023-02-11T19:51:52.155Z,102590.03
2023-02-11T19:54:21.290Z,102576.91
2023-02-11T19:56:49.856Z,102579.88
2023-02-11T19:59:21.140Z,102589.09
2023-02-11T20:01:49.881Z,102592.50
2023-02-11T20:04:18.602Z,102598.00
2023-02-11T20:06:48.281Z,102595.88
2023-02-11T20:09:17.053Z,102612.34
2023-02-11T20:11:45.529Z,102613.97
2023-02-11T20:14:15.651Z,102626.97
2023-02-11T20:16:49.597Z,102624.00
2023-02-11T20:19:20.022Z,102624.00
2023-02-11T20:21:49.627Z,102628.06
2023-02-11T20:24:20.272Z,102635.25
2023-02-11T20:26:49.260Z,102626.69
2023-02-11T20:29:18.113Z,102628.50
2023-02-11T20:31:49.310Z,102631.88
2023-02-11T20:34:18.884Z,102632.38
2023-02-11T20:36:52.054Z,102634.03
2023-02-11T20:39:22.456Z,102633.94
2023-02-11T20:41:51.713Z,102634.84
2023-02-11T20:44:21.801Z,102645.88
2023-02-11T20:46:53.765Z,102644.78
2023-02-11T20:49:24.587Z,102647.03
2023-02-11T20:51:53.825Z,102656.59
2023-02-11T20:54:23.206Z,102666.84
2023-02-11T20:56:53.739Z,102671.81
2023-02-11T20:59:22.772Z,102665.25
2023-02-11T21:01:55.586Z,102670.69
2023-02-11T21:04:25.935Z,102668.84
2023-02-11T21:06:56.635Z,102672.59
2023-02-11T21:09:27.827Z,102669.88
2023-02-11T21:11:56.971Z,102672.78
2023-02-11T21:14:26.839Z,102679.66
2023-02-11T21:16:57.574Z,102682.47
2023-02-11T21:19:26.200Z,102684.19
2023-02-11T21:21:57.267Z,102694.13
2023-02-11T21:24:25.770Z,102685.56
2023-02-11T21:26:54.691Z,102691.19
2023-02-11T21:29:23.344Z,102704.13
2023-02-11T21:31:51.951Z,102709.41
2023-02-11T21:34:21.811Z,102718.97
2023-02-11T21:36:51.257Z,102730.25
2023-02-11T21:39:20.400Z,102729.25
2023-02-11T21:41:49.059Z,102730.13
2023-02-11T21:44:17.787Z,102724.28
2023-02-11T21:46:46.359Z,102728.09
2023-02-11T21:49:14.837Z,102734.63
2023-02-11T21:51:44.607Z,102727.53
2023-02-11T21:54:13.284Z,102732.94
2023-02-11T21:56:41.826Z,102740.03
2023-02-11T21:59:14.003Z,102746.69
2023-02-11T22:01:42.605Z,102747.47
2023-02-11T22:04:11.132Z,102744.09
2023-02-11T22:06:40.068Z,102744.09
2023-02-11T22:09:11.102Z,102744.78
2023-02-11T22:11:40.560Z,102757.13
2023-02-11T22:14:09.181Z,102756.25
2023-02-11T22:16:37.844Z,102769.88
2023-02-11T22:19:07.571Z,102762.78
2023-02-11T22:21:36.110Z,102776.06
2023-02-11T22:24:04.892Z,102783.50
2023-02-11T22:26:34.709Z,102787.06
2023-02-11T22:29:03.202Z,102786.41
2023-02-11T22:31:34.201Z,102791.25
2023-02-11T22:34:04.239Z,102790.03
2023-02-11T22:36:34.923Z,102800.03
2023-02-11T22:39:04.520Z,102802.53
2023-02-11T22:41:35.601Z,102804.19
2023-02-11T22:44:04.032Z,102813.88
2023-02-11T22:46:32.524Z,102810.06
2023-02-11T22:49:01.225Z,102813.44
2023-02-11T22:51:30.879Z,102813.75
2023-02-11T22:54:01.297Z,102816.91
2023-02-11T22:56:30.914Z,102824.91
2023-02-11T22:59:02.259Z,102827.38
2023-02-11T23:01:31.503Z,102824.22
2023-02-11T23:04:01.289Z,102818.38
2023-02-11T23:06:29.732Z,102820.84
2023-02-11T23:08:58.541Z,102818.72
2023-02-11T23:11:29.271Z,102833.00
2023-02-11T23:13:57.912Z,102835.03
2023-02-11T23:16:30.914Z,102839.31
2023-02-11T23:19:01.319Z,102841.09
2023-02-11T23:21:32.622Z,102839.31
2023-02-11T23:24:03.311Z,102844.91
2023-02-11T23:26:31.828Z,102849.22
2023-02-11T23:29:01.006Z,102845.28
2023-02-11T23:31:33.945Z,102844.25
2023-02-11T23:34:02.859Z,102843.81
2023-02-11T23:36:31.698Z,102848.09
2023-02-11T23:39:00.338Z,102849.22
2023-02-11T23:41:29.839Z,102851.00
2023-02-11T23:43:59.052Z,102855.94
2023-02-11T23:46:28.157Z,102854.84
2023-02-11T23:48:58.063Z,102857.56
2023-02-11T23:51:26.502Z,102865.53
2023-02-11T23:53:56.223Z,102864.75
2023-02-11T23:56:28.365Z,102855.94
2023-02-11T23:58:58.880Z,102853.06
